Time;durP1;ratioP1;P1;durP2;ratioP2;P2;SDS_P1;SDS_P2;PMS_P1;PMS_P2;Temp;Humidity;BMP_temperature;BMP_pressure;BME280_temperature;BME280_humidity;BME280_pressure;Samples;Min_cycle;Max_cycle;Signal;HPM_P1;HPM_P2
2021/01/08 00:01:12;;;;;;;10.40;8.02;;;;;;;;;;5078261;28;20036;-89
2021/01/08 00:03:41;;;;;;;7.95;7.25;;;;;;;;;;5078247;28;20032;-88
2021/01/08 00:06:07;;;;;;;8.77;7.97;;;;;;;;;;5096045;28;20032;-87
2021/01/08 00:08:51;;;;;;;8.00;7.20;;;;;;;;;;5078594;28;20038;-87
2021/01/08 00:11:24;;;;;;;8.65;7.78;;;;;;;;;;5096459;28;20028;-87
2021/01/08 00:14:02;;;;;;;7.75;7.05;;;;;;;;;;5077258;28;20040;-89
2021/01/08 00:16:32;;;;;;;8.73;7.93;;;;;;;;;;5079126;28;20097;-88
2021/01/08 00:19:08;;;;;;;8.98;8.07;;;;;;;;;;5078509;28;20060;-88
2021/01/08 00:21:36;;;;;;;8.65;7.85;;;;;;;;;;5078271;28;20351;-88
2021/01/08 00:24:10;;;;;;;9.23;8.43;;;;;;;;;;5078213;28;20032;-89
2021/01/08 00:26:39;;;;;;;8.25;7.55;;;;;;;;;;5078205;28;20084;-87
2021/01/08 00:29:06;;;;;;;8.35;7.55;;;;;;;;;;5081637;28;20035;-87
2021/01/08 00:31:37;;;;;;;9.10;8.20;;;;;;;;;;5081410;28;20035;-88
2021/01/08 00:34:03;;;;;;;8.13;7.32;;;;;;;;;;5099022;28;20028;-87
2021/01/08 00:36:30;;;;;;;8.20;7.40;;;;;;;;;;5081688;28;20032;-89
2021/01/08 00:38:56;;;;;;;8.82;8.02;;;;;;;;;;5081860;28;20027;-86
2021/01/08 00:41:33;;;;;;;8.27;7.47;;;;;;;;;;5081546;28;20132;-88
2021/01/08 00:44:00;;;;;;;8.45;7.65;;;;;;;;;;5081726;28;20036;-88
2021/01/08 00:46:33;;;;;;;14.70;8.40;;;;;;;;;;5081510;28;20088;-87
2021/01/08 00:48:59;;;;;;;8.70;7.88;;;;;;;;;;5081440;28;20040;-88
2021/01/08 00:51:30;;;;;;;9.20;8.20;;;;;;;;;;5081700;28;20028;-88
2021/01/08 00:54:14;;;;;;;8.13;7.32;;;;;;;;;;5098955;28;20035;-88
2021/01/08 00:56:40;;;;;;;9.02;7.68;;;;;;;;;;5098936;28;20039;-89
2021/01/08 00:59:15;;;;;;;8.50;7.65;;;;;;;;;;5081263;28;20425;-89
2021/01/08 01:01:47;;;;;;;8.45;7.65;;;;;;;;;;5080971;28;20043;-88
2021/01/08 01:04:13;;;;;;;9.23;8.32;;;;;;;;;;5098512;28;20055;-87
2021/01/08 01:06:42;;;;;;;9.25;8.30;;;;;;;;;;5097848;28;20036;-88
2021/01/08 01:09:15;;;;;;;8.55;7.47;;;;;;;;;;5109991;28;20027;-88
2021/01/08 01:11:41;;;;;;;8.73;7.93;;;;;;;;;;5101668;28;20070;-88
2021/01/08 01:14:13;;;;;;;7.47;6.78;;;;;;;;;;5101229;28;20062;-88
2021/01/08 01:16:39;;;;;;;8.93;8.13;;;;;;;;;;5101209;28;20032;-87
2021/01/08 01:19:06;;;;;;;7.95;7.15;;;;;;;;;;5101075;28;20362;-87
2021/01/08 01:21:35;;;;;;;8.82;7.57;;;;;;;;;;5097968;28;20054;-87
2021/01/08 01:24:01;;;;;;;8.07;7.28;;;;;;;;;;5081239;28;20343;-89
2021/01/08 01:26:30;;;;;;;8.25;7.45;;;;;;;;;;5080609;28;20063;-89
2021/01/08 01:29:04;;;;;;;8.13;7.32;;;;;;;;;;5080391;28;20067;-88
2021/01/08 01:31:33;;;;;;;8.07;7.32;;;;;;;;;;5081054;28;20036;-88
2021/01/08 01:34:05;;;;;;;8.15;7.32;;;;;;;;;;5081870;28;20031;-87
2021/01/08 01:36:32;;;;;;;7.93;7.13;;;;;;;;;;5097636;28;20466;-88
2021/01/08 01:39:19;;;;;;;8.30;7.50;;;;;;;;;;5096018;28;20063;-88
2021/01/08 01:42:03;;;;;;;7.70;7.00;;;;;;;;;;5118450;28;20027;-88
2021/01/08 01:44:35;;;;;;;7.88;7.18;;;;;;;;;;5100540;28;20031;-88
2021/01/08 01:47:10;;;;;;;7.50;6.80;;;;;;;;;;5100476;28;20113;-88
2021/01/08 01:49:36;;;;;;;7.50;6.80;;;;;;;;;;5100628;28;20031;-87
2021/01/08 01:52:11;;;;;;;8.00;7.20;;;;;;;;;;5100497;28;20057;-88
2021/01/08 01:54:39;;;;;;;7.20;6.50;;;;;;;;;;5118990;28;20031;-88
2021/01/08 01:57:06;;;;;;;8.43;7.55;;;;;;;;;;5100260;28;20024;-87
2021/01/08 01:59:32;;;;;;;7.90;7.20;;;;;;;;;;5118635;28;20028;-89
2021/01/08 02:02:00;;;;;;;8.05;7.25;;;;;;;;;;5098718;28;20071;-87
2021/01/08 02:04:26;;;;;;;7.53;6.80;;;;;;;;;;5099592;28;20098;-87
2021/01/08 02:06:58;;;;;;;7.32;6.53;;;;;;;;;;5100190;28;20027;-87
2021/01/08 02:09:29;;;;;;;9.23;7.55;;;;;;;;;;5100768;28;20050;-89
2021/01/08 02:11:56;;;;;;;7.13;6.43;;;;;;;;;;5100073;28;20031;-87
2021/01/08 02:14:29;;;;;;;8.45;7.57;;;;;;;;;;5100486;28;20036;-88
2021/01/08 02:16:57;;;;;;;7.75;7.05;;;;;;;;;;5100663;28;20028;-89
2021/01/08 02:19:25;;;;;;;7.90;7.20;;;;;;;;;;5084287;28;20038;-88
2021/01/08 02:21:54;;;;;;;7.95;7.15;;;;;;;;;;5100817;28;20043;-88
2021/01/08 02:24:28;;;;;;;7.47;6.80;;;;;;;;;;5100395;28;20042;-88
2021/01/08 02:26:54;;;;;;;7.57;6.78;;;;;;;;;;5100337;28;20046;-88
2021/01/08 02:29:20;;;;;;;7.65;6.95;;;;;;;;;;5118265;28;20114;-88
2021/01/08 02:31:47;;;;;;;7.93;6.93;;;;;;;;;;5100230;28;20039;-89
2021/01/08 02:34:13;;;;;;;7.78;6.97;;;;;;;;;;5100167;28;20020;-88
2021/01/08 02:36:42;;;;;;;6.90;6.20;;;;;;;;;;5118524;28;20038;-88
2021/01/08 02:39:09;;;;;;;7.32;6.70;;;;;;;;;;5117825;28;20031;-88
2021/01/08 02:41:40;;;;;;;7.68;6.85;;;;;;;;;;5100551;28;20047;-89
2021/01/08 02:44:06;;;;;;;7.40;6.70;;;;;;;;;;5119530;28;20028;-88
2021/01/08 02:46:33;;;;;;;7.80;6.75;;;;;;;;;;5101499;28;20070;-87
2021/01/08 02:48:59;;;;;;;6.63;6.03;;;;;;;;;;5102730;28;20031;-89
2021/01/08 02:51:25;;;;;;;7.60;6.80;;;;;;;;;;5102257;28;20370;-88
2021/01/08 02:53:52;;;;;;;7.63;6.82;;;;;;;;;;5103660;28;20024;-88
2021/01/08 02:56:20;;;;;;;8.15;7.38;;;;;;;;;;5109934;27;20019;-89
2021/01/08 02:58:46;;;;;;;8.15;6.40;;;;;;;;;;5120385;27;20003;-87
2021/01/08 03:01:13;;;;;;;9.38;7.43;;;;;;;;;;5137783;27;20011;-88
2021/01/08 03:03:39;;;;;;;8.48;6.93;;;;;;;;;;5138322;27;20007;-87
2021/01/08 03:06:06;;;;;;;9.13;7.72;;;;;;;;;;5120385;27;20020;-88
2021/01/08 03:08:32;;;;;;;7.72;7.03;;;;;;;;;;5120511;27;20046;-88
2021/01/08 03:10:58;;;;;;;7.45;6.78;;;;;;;;;;5138334;27;20011;-90
2021/01/08 03:13:25;;;;;;;7.22;6.53;;;;;;;;;;5120331;27;20047;-88
2021/01/08 03:15:51;;;;;;;7.95;7.25;;;;;;;;;;5138120;27;20147;-88
2021/01/08 03:18:17;;;;;;;7.22;6.47;;;;;;;;;;5120434;27;20024;-88
2021/01/08 03:20:43;;;;;;;7.35;6.65;;;;;;;;;;5137730;27;20043;-87
2021/01/08 03:23:09;;;;;;;7.10;6.38;;;;;;;;;;5120140;27;20107;-88
2021/01/08 03:25:35;;;;;;;8.27;7.47;;;;;;;;;;5119502;28;20012;-87
2021/01/08 03:28:01;;;;;;;7.00;6.30;;;;;;;;;;5118685;28;20036;-89
2021/01/08 03:30:27;;;;;;;7.18;6.57;;;;;;;;;;5119200;28;20023;-89
2021/01/08 03:32:53;;;;;;;7.75;7.05;;;;;;;;;;5118649;28;20053;-88
2021/01/08 03:35:19;;;;;;;6.80;6.18;;;;;;;;;;5098310;28;20043;-88
2021/01/08 03:37:46;;;;;;;6.68;5.97;;;;;;;;;;5092360;28;20103;-88
2021/01/08 03:40:12;;;;;;;7.13;6.43;;;;;;;;;;5103587;28;20092;-88
2021/01/08 03:42:38;;;;;;;7.25;6.47;;;;;;;;;;5077359;28;20036;-88
2021/01/08 03:45:05;;;;;;;6.57;5.97;;;;;;;;;;5099500;28;20583;-88
2021/01/08 03:47:31;;;;;;;6.72;6.13;;;;;;;;;;5117572;28;20080;-89
2021/01/08 03:49:57;;;;;;;7.05;6.35;;;;;;;;;;5102644;28;20411;-88
2021/01/08 03:52:23;;;;;;;7.40;6.65;;;;;;;;;;5103238;28;20023;-88
2021/01/08 03:54:49;;;;;;;8.68;6.88;;;;;;;;;;5102647;28;20039;-88
2021/01/08 03:57:15;;;;;;;7.40;6.60;;;;;;;;;;5119710;28;20019;-89
2021/01/08 03:59:41;;;;;;;6.57;5.97;;;;;;;;;;5100725;28;20035;-88
2021/01/08 04:02:07;;;;;;;7.05;6.43;;;;;;;;;;5099285;28;20061;-88
2021/01/08 04:04:34;;;;;;;7.32;6.63;;;;;;;;;;5102745;28;20062;-88
2021/01/08 04:07:00;;;;;;;7.50;6.78;;;;;;;;;;5102091;28;20028;-88
2021/01/08 04:09:26;;;;;;;6.90;6.13;;;;;;;;;;5102313;28;20019;-88
2021/01/08 04:11:52;;;;;;;6.50;5.90;;;;;;;;;;5102427;28;20039;-89
2021/01/08 04:14:18;;;;;;;8.15;5.78;;;;;;;;;;5102164;28;20027;-90
2021/01/08 04:16:44;;;;;;;6.93;6.22;;;;;;;;;;5081595;28;20035;-88
2021/01/08 04:19:10;;;;;;;7.40;6.70;;;;;;;;;;5119686;28;20024;-88
2021/01/08 04:21:37;;;;;;;7.32;6.43;;;;;;;;;;5119803;28;20054;-88
2021/01/08 04:24:04;;;;;;;6.45;5.70;;;;;;;;;;5111738;28;20019;-89
2021/01/08 04:26:30;;;;;;;6.65;5.95;;;;;;;;;;5119390;28;20038;-86
2021/01/08 04:28:56;;;;;;;7.30;6.28;;;;;;;;;;5103101;28;20028;-88
2021/01/08 04:31:23;;;;;;;6.95;6.35;;;;;;;;;;5101912;28;20043;-88
2021/01/08 04:33:49;;;;;;;6.22;5.63;;;;;;;;;;5102237;28;20031;-89
2021/01/08 04:36:15;;;;;;;6.50;5.90;;;;;;;;;;5119835;28;20031;-89
2021/01/08 04:38:41;;;;;;;7.15;6.45;;;;;;;;;;5101586;28;20078;-88
2021/01/08 04:41:08;;;;;;;8.38;6.70;;;;;;;;;;5101799;28;20137;-89
2021/01/08 04:43:35;;;;;;;6.20;5.60;;;;;;;;;;5102351;28;20020;-87
2021/01/08 04:46:09;;;;;;;6.57;5.93;;;;;;;;;;5101966;28;20038;-89
2021/01/08 04:48:35;;;;;;;6.05;5.45;;;;;;;;;;5101485;28;20038;-89
2021/01/08 04:51:03;;;;;;;6.60;6.00;;;;;;;;;;5102191;28;20168;-89
2021/01/08 04:53:30;;;;;;;7.32;6.50;;;;;;;;;;5102034;28;20038;-89
2021/01/08 04:55:57;;;;;;;7.20;6.50;;;;;;;;;;5102003;28;20331;-88
2021/01/08 04:58:25;;;;;;;6.47;5.88;;;;;;;;;;5101979;28;20031;-88
2021/01/08 05:00:51;;;;;;;7.38;6.68;;;;;;;;;;5101903;28;20042;-89
2021/01/08 05:03:18;;;;;;;6.30;5.70;;;;;;;;;;5068125;28;20021;-89
2021/01/08 05:05:44;;;;;;;6.43;5.82;;;;;;;;;;5060230;28;20029;-89
2021/01/08 05:08:10;;;;;;;7.00;6.30;;;;;;;;;;5060931;28;20070;-89
2021/01/08 05:10:37;;;;;;;7.18;6.47;;;;;;;;;;5061328;28;20035;-89
2021/01/08 05:13:03;;;;;;;8.27;6.28;;;;;;;;;;5061031;28;20020;-89
2021/01/08 05:15:29;;;;;;;6.78;6.18;;;;;;;;;;5063274;28;20399;-89
2021/01/08 05:17:56;;;;;;;6.25;5.63;;;;;;;;;;5080769;28;20427;-88
2021/01/08 05:20:22;;;;;;;7.05;5.93;;;;;;;;;;5080782;28;20131;-88
2021/01/08 05:22:51;;;;;;;7.53;6.53;;;;;;;;;;5081406;28;20032;-88
2021/01/08 05:25:17;;;;;;;6.70;6.10;;;;;;;;;;5080531;28;20032;-88
2021/01/08 05:27:43;;;;;;;5.82;5.22;;;;;;;;;;5076797;28;20483;-89
2021/01/08 05:30:12;;;;;;;6.03;5.43;;;;;;;;;;5097546;28;20043;-88
2021/01/08 05:32:39;;;;;;;6.85;6.15;;;;;;;;;;5080591;28;20036;-88
2021/01/08 05:35:05;;;;;;;6.50;5.88;;;;;;;;;;5071499;28;20037;-86
2021/01/08 05:37:31;;;;;;;6.68;6.07;;;;;;;;;;5069308;28;20032;-90
2021/01/08 05:40:01;;;;;;;6.47;5.88;;;;;;;;;;5080762;28;20044;-87
2021/01/08 05:42:27;;;;;;;5.68;5.18;;;;;;;;;;5080225;28;20031;-89
2021/01/08 05:44:54;;;;;;;6.60;6.00;;;;;;;;;;5081209;28;20066;-87
2021/01/08 05:47:20;;;;;;;5.70;5.20;;;;;;;;;;5098763;28;20071;-87
2021/01/08 05:49:47;;;;;;;7.10;5.97;;;;;;;;;;5081009;28;20032;-88
2021/01/08 05:52:13;;;;;;;6.38;5.75;;;;;;;;;;5080821;28;20031;-88
2021/01/08 05:54:39;;;;;;;6.22;5.63;;;;;;;;;;5099186;28;20043;-88
2021/01/08 05:57:05;;;;;;;5.15;4.65;;;;;;;;;;5080311;28;20028;-88
2021/01/08 05:59:35;;;;;;;6.03;5.43;;;;;;;;;;5080775;28;20027;-88
2021/01/08 06:02:04;;;;;;;6.70;6.10;;;;;;;;;;5080200;28;20039;-89
2021/01/08 06:04:33;;;;;;;5.38;4.88;;;;;;;;;;5079942;28;20050;-88
2021/01/08 06:07:20;;;;;;;6.00;5.25;;;;;;;;;;5082066;28;20032;-88
2021/01/08 06:09:53;;;;;;;5.65;5.13;;;;;;;;;;5073248;28;20128;-88
2021/01/08 06:12:23;;;;;;;5.10;4.60;;;;;;;;;;5059529;28;20089;-88
2021/01/08 06:14:49;;;;;;;5.63;5.13;;;;;;;;;;5075072;28;20077;-88
2021/01/08 06:17:18;;;;;;;8.52;5.18;;;;;;;;;;5075454;28;20032;-88
2021/01/08 06:19:45;;;;;;;8.02;5.38;;;;;;;;;;5067995;28;20024;-87
2021/01/08 06:22:11;;;;;;;6.18;5.60;;;;;;;;;;5079555;28;20164;-88
2021/01/08 06:24:40;;;;;;;6.15;5.55;;;;;;;;;;5079309;28;20035;-88
2021/01/08 06:27:13;;;;;;;5.28;4.78;;;;;;;;;;5079798;28;20043;-88
2021/01/08 06:29:43;;;;;;;6.15;5.55;;;;;;;;;;5080011;28;20463;-88
2021/01/08 06:32:16;;;;;;;4.72;4.30;;;;;;;;;;5080673;28;20039;-88
2021/01/08 06:34:46;;;;;;;5.18;4.68;;;;;;;;;;5080432;28;20043;-89
2021/01/08 06:37:18;;;;;;;5.65;5.13;;;;;;;;;;5080363;28;20185;-88
2021/01/08 06:39:45;;;;;;;6.75;4.63;;;;;;;;;;5079567;28;20044;-88
2021/01/08 06:42:25;;;;;;;6.47;5.50;;;;;;;;;;5080074;28;20020;-87
2021/01/08 06:44:51;;;;;;;5.28;4.78;;;;;;;;;;5098488;28;20050;-88
2021/01/08 06:47:22;;;;;;;5.78;5.18;;;;;;;;;;5097461;28;20067;-88
2021/01/08 06:49:57;;;;;;;5.32;4.82;;;;;;;;;;5079273;28;20335;-87
2021/01/08 06:52:30;;;;;;;5.60;5.07;;;;;;;;;;5069131;28;20039;-87
2021/01/08 06:54:56;;;;;;;6.20;5.03;;;;;;;;;;5078478;28;20035;-87
2021/01/08 06:57:22;;;;;;;5.30;4.55;;;;;;;;;;5079032;28;20032;-88
2021/01/08 07:00:02;;;;;;;6.35;4.50;;;;;;;;;;5078709;28;20317;-89
2021/01/08 07:02:31;;;;;;;5.65;5.15;;;;;;;;;;5080194;28;20429;-89
2021/01/08 07:04:57;;;;;;;7.03;5.45;;;;;;;;;;5073980;28;20042;-89
2021/01/08 07:07:26;;;;;;;5.65;5.15;;;;;;;;;;5091858;28;20058;-88
2021/01/08 07:09:56;;;;;;;5.43;4.70;;;;;;;;;;5077647;28;20110;-88
2021/01/08 07:12:23;;;;;;;5.50;4.88;;;;;;;;;;5076146;28;20051;-88
2021/01/08 07:14:50;;;;;;;5.60;5.10;;;;;;;;;;5094831;28;20015;-88
2021/01/08 07:17:16;;;;;;;6.57;5.90;;;;;;;;;;5078688;28;20080;-87
2021/01/08 07:19:43;;;;;;;6.28;5.68;;;;;;;;;;5075337;28;20020;-87
2021/01/08 07:22:13;;;;;;;6.13;5.50;;;;;;;;;;5084551;28;20043;-88
2021/01/08 07:24:39;;;;;;;5.35;4.72;;;;;;;;;;5075174;28;20028;-88
2021/01/08 07:27:15;;;;;;;6.68;5.88;;;;;;;;;;5076352;28;20024;-88
2021/01/08 07:29:41;;;;;;;6.47;5.65;;;;;;;;;;5096343;28;20039;-87
2021/01/08 07:32:15;;;;;;;9.15;5.85;;;;;;;;;;5090372;28;20028;-87
2021/01/08 07:34:41;;;;;;;6.95;6.25;;;;;;;;;;5087882;28;20050;-88
2021/01/08 07:37:07;;;;;;;7.82;6.57;;;;;;;;;;5090016;28;20320;-87
2021/01/08 07:39:38;;;;;;;6.85;6.15;;;;;;;;;;5078854;28;20411;-87
2021/01/08 07:42:23;;;;;;;6.72;5.80;;;;;;;;;;5077274;28;20040;-87
2021/01/08 07:44:49;;;;;;;8.23;7.13;;;;;;;;;;5079494;28;20036;-88
2021/01/08 07:47:42;;;;;;;6.70;6.10;;;;;;;;;;5079441;28;20032;-87
2021/01/08 07:50:09;;;;;;;7.03;6.32;;;;;;;;;;5072439;28;20037;-88
2021/01/08 07:52:39;;;;;;;8.23;7.35;;;;;;;;;;5074231;28;20039;-87
2021/01/08 07:55:06;;;;;;;7.65;6.85;;;;;;;;;;5081253;28;20064;-88
2021/01/08 07:57:52;;;;;;;7.82;7.03;;;;;;;;;;5081371;28;20024;-88
2021/01/08 08:00:28;;;;;;;6.70;5.82;;;;;;;;;;5097533;28;20039;-87
2021/01/08 08:03:55;;;;;;;8.52;7.38;;;;;;;;;;5076919;28;20118;-86
2021/01/08 08:06:03;;;;;;;10.83;7.60;;;;;;;;;;5086392;28;20056;-87
2021/01/08 08:08:30;;;;;;;8.48;7.57;;;;;;;;;;5081300;28;20016;-86
2021/01/08 08:11:16;;;;;;;7.85;7.05;;;;;;;;;;5098287;28;20073;-88
2021/01/08 08:13:44;;;;;;;7.80;6.95;;;;;;;;;;5078730;28;20038;-89
2021/01/08 08:16:10;;;;;;;7.55;6.85;;;;;;;;;;5081250;28;20034;-88
2021/01/08 08:18:55;;;;;;;7.78;7.00;;;;;;;;;;5071495;28;20382;-87
2021/01/08 08:21:21;;;;;;;7.97;6.28;;;;;;;;;;5072907;28;20138;-87
2021/01/08 08:23:55;;;;;;;6.63;5.95;;;;;;;;;;5076831;28;20039;-88
2021/01/08 08:26:24;;;;;;;7.78;6.82;;;;;;;;;;5073964;28;20028;-88
2021/01/08 08:29:07;;;;;;;7.22;6.50;;;;;;;;;;5076728;28;20043;-87
2021/01/08 08:31:35;;;;;;;8.18;7.05;;;;;;;;;;5074707;28;20039;-88
2021/01/08 08:34:05;;;;;;;7.80;6.80;;;;;;;;;;5079577;28;20063;-87
2021/01/08 08:36:32;;;;;;;8.23;7.43;;;;;;;;;;5077572;28;20024;-87
2021/01/08 08:39:06;;;;;;;8.52;7.38;;;;;;;;;;5078687;28;20080;-86
2021/01/08 08:41:33;;;;;;;7.72;6.28;;;;;;;;;;5097356;28;20055;-88
2021/01/08 08:44:04;;;;;;;7.40;6.63;;;;;;;;;;5096874;28;20016;-87
2021/01/08 08:46:47;;;;;;;7.57;6.88;;;;;;;;;;5079279;28;20060;-87
2021/01/08 08:49:25;;;;;;;10.15;7.93;;;;;;;;;;5080969;28;20071;-86
2021/01/08 08:51:52;;;;;;;7.45;6.68;;;;;;;;;;5080986;28;20040;-87
2021/01/08 08:54:24;;;;;;;8.52;6.43;;;;;;;;;;5078594;28;20028;-87
2021/01/08 08:56:50;;;;;;;6.75;6.10;;;;;;;;;;5076623;28;20032;-87
2021/01/08 08:59:35;;;;;;;6.93;6.20;;;;;;;;;;5073875;28;20119;-87
2021/01/08 09:02:01;;;;;;;7.50;6.75;;;;;;;;;;5078666;28;20152;-89
2021/01/08 09:04:28;;;;;;;6.63;5.88;;;;;;;;;;5095290;28;20028;-86
2021/01/08 09:06:57;;;;;;;7.47;6.68;;;;;;;;;;5080142;28;20025;-85
2021/01/08 09:09:27;;;;;;;8.25;6.88;;;;;;;;;;5098484;28;20058;-88
2021/01/08 09:11:59;;;;;;;7.32;6.63;;;;;;;;;;5079455;28;20031;-86
2021/01/08 09:14:33;;;;;;;8.32;7.53;;;;;;;;;;5080427;28;20046;-88
2021/01/08 09:17:20;;;;;;;7.82;6.90;;;;;;;;;;5097461;28;20020;-87
2021/01/08 09:19:51;;;;;;;7.13;6.38;;;;;;;;;;5079061;28;20536;-88
2021/01/08 09:22:21;;;;;;;7.38;6.68;;;;;;;;;;5078898;28;20051;-86
2021/01/08 09:27:36;;;;;;;7.40;6.50;;;;;;;;;;5097381;28;20083;-88
2021/01/08 09:30:12;;;;;;;7.85;6.55;;;;;;;;;;5095908;28;20283;-87
2021/01/08 09:32:38;;;;;;;7.55;6.63;;;;;;;;;;5077643;28;20028;-86
2021/01/08 09:35:08;;;;;;;7.00;6.40;;;;;;;;;;5096704;28;20332;-85
2021/01/08 09:37:46;;;;;;;5.97;5.38;;;;;;;;;;5078790;28;20040;-86
2021/01/08 09:40:21;;;;;;;7.95;5.80;;;;;;;;;;5094775;28;20028;-85
2021/01/08 09:42:48;;;;;;;6.15;5.60;;;;;;;;;;5070732;28;20381;-87
2021/01/08 09:45:19;;;;;;;6.20;5.60;;;;;;;;;;5079849;28;20043;-86
2021/01/08 09:47:45;;;;;;;7.00;6.13;;;;;;;;;;5094771;28;20030;-87
2021/01/08 09:55:33;;;;;;;6.40;5.45;;;;;;;;;;5116281;28;20101;-86
2021/01/08 09:58:00;;;;;;;6.05;5.45;;;;;;;;;;5096275;28;20031;-86
2021/01/08 10:00:27;;;;;;;7.10;6.18;;;;;;;;;;5096377;28;20156;-87
2021/01/08 10:02:53;;;;;;;7.13;6.40;;;;;;;;;;5098933;28;20027;-86
2021/01/08 10:05:19;;;;;;;7.25;6.55;;;;;;;;;;5114219;28;20077;-85
2021/01/08 10:07:46;;;;;;;6.60;5.95;;;;;;;;;;5109690;28;20032;-86
2021/01/08 10:10:36;;;;;;;6.45;5.85;;;;;;;;;;5115814;28;20027;-87
2021/01/08 10:13:05;;;;;;;6.45;5.70;;;;;;;;;;5097548;28;20031;-86
2021/01/08 10:15:38;;;;;;;6.03;5.37;;;;;;;;;;5096683;28;20134;-86
2021/01/08 10:18:11;;;;;;;6.25;5.28;;;;;;;;;;5098067;28;20260;-86
2021/01/08 10:20:42;;;;;;;6.05;5.32;;;;;;;;;;5097938;28;20120;-85
2021/01/08 10:23:18;;;;;;;6.03;5.43;;;;;;;;;;5099136;28;20063;-86
2021/01/08 10:25:45;;;;;;;6.05;5.45;;;;;;;;;;5098960;28;20320;-85
2021/01/08 10:28:14;;;;;;;6.18;5.57;;;;;;;;;;5115886;28;20384;-84
2021/01/08 10:30:44;;;;;;;13.02;5.82;;;;;;;;;;5114614;28;20036;-86
2021/01/08 10:33:10;;;;;;;6.03;5.40;;;;;;;;;;5099309;28;20138;-86
2021/01/08 10:35:37;;;;;;;5.40;4.90;;;;;;;;;;5117531;28;20029;-88
2021/01/08 10:38:03;;;;;;;8.15;5.70;;;;;;;;;;5100669;28;20028;-89
2021/01/08 10:40:30;;;;;;;5.82;5.18;;;;;;;;;;5099252;28;20442;-86
2021/01/08 10:42:56;;;;;;;6.05;5.45;;;;;;;;;;5114073;28;20065;-87
2021/01/08 10:45:25;;;;;;;5.90;5.30;;;;;;;;;;5096593;28;20026;-87
2021/01/08 10:47:51;;;;;;;7.00;5.45;;;;;;;;;;5093809;28;20328;-86
2021/01/08 10:50:18;;;;;;;6.03;5.28;;;;;;;;;;5114503;28;20024;-86
2021/01/08 10:52:44;;;;;;;7.30;5.05;;;;;;;;;;5117107;28;20015;-87
2021/01/08 10:55:11;;;;;;;7.68;5.72;;;;;;;;;;5098481;28;20038;-86
2021/01/08 10:57:38;;;;;;;6.45;5.85;;;;;;;;;;5116550;28;20023;-86
2021/01/08 11:00:08;;;;;;;9.48;5.35;;;;;;;;;;5097293;28;20028;-87
2021/01/08 11:02:38;;;;;;;6.00;5.35;;;;;;;;;;5113277;28;20020;-86
2021/01/08 11:05:04;;;;;;;;;;;;;;;;;;5097023;28;20055;-86
2021/01/08 11:07:32;;;;;;;6.95;5.10;;;;;;;;;;5096908;28;19931;-86
2021/01/08 11:09:58;;;;;;;8.38;4.95;;;;;;;;;;5099043;28;20035;-86
2021/01/08 11:12:26;;;;;;;5.13;4.53;;;;;;;;;;5097034;28;20031;-88
2021/01/08 11:14:52;;;;;;;5.50;5.00;;;;;;;;;;5098570;28;20023;-88
2021/01/08 11:17:18;;;;;;;5.57;4.88;;;;;;;;;;5093442;28;20028;-88
2021/01/08 11:19:44;;;;;;;5.80;4.93;;;;;;;;;;5100218;28;20035;-88
2021/01/08 11:22:10;;;;;;;5.65;5.13;;;;;;;;;;5091445;28;20071;-87
2021/01/08 11:24:40;;;;;;;4.90;4.40;;;;;;;;;;5092682;28;20032;-88
2021/01/08 11:27:12;;;;;;;4.93;4.43;;;;;;;;;;5110712;28;20043;-87
2021/01/08 11:29:51;;;;;;;4.82;4.10;;;;;;;;;;5094984;28;20039;-88
2021/01/08 11:32:41;;;;;;;5.23;4.73;;;;;;;;;;5112141;28;20122;-87
2021/01/08 11:35:07;;;;;;;4.45;4.05;;;;;;;;;;5111345;28;20047;-87
2021/01/08 11:37:36;;;;;;;4.65;4.18;;;;;;;;;;5109880;28;20020;-86
2021/01/08 11:40:03;;;;;;;4.65;4.25;;;;;;;;;;5115371;28;20032;-87
2021/01/08 11:42:58;;;;;;;6.15;4.90;;;;;;;;;;5111545;28;20034;-86
2021/01/08 11:45:30;;;;;;;6.13;5.07;;;;;;;;;;5097839;28;20028;-87
2021/01/08 11:47:57;;;;;;;6.38;4.20;;;;;;;;;;5108377;28;20043;-86
2021/01/08 11:50:26;;;;;;;5.90;4.70;;;;;;;;;;5110669;28;20026;-87
2021/01/08 11:52:52;;;;;;;5.47;4.20;;;;;;;;;;5089023;28;20118;-86
2021/01/08 11:55:18;;;;;;;5.28;4.78;;;;;;;;;;5093648;28;20102;-86
2021/01/08 12:00:34;;;;;;;4.45;4.05;;;;;;;;;;5103339;28;20357;-88
2021/01/08 12:03:09;;;;;;;5.10;4.28;;;;;;;;;;5102945;28;20028;-88
2021/01/08 12:05:38;;;;;;;4.90;4.40;;;;;;;;;;5096816;28;20123;-86
2021/01/08 12:08:07;;;;;;;5.97;4.45;;;;;;;;;;5095887;28;20459;-85
2021/01/08 12:10:33;;;;;;;4.97;4.47;;;;;;;;;;5103353;28;20028;-87
2021/01/08 12:13:01;;;;;;;9.35;4.75;;;;;;;;;;5112223;28;20023;-87
2021/01/08 12:15:28;;;;;;;4.72;4.22;;;;;;;;;;5094597;28;20423;-87
2021/01/08 12:17:54;;;;;;;5.05;4.60;;;;;;;;;;5097672;28;20031;-87
2021/01/08 12:20:20;;;;;;;8.10;4.45;;;;;;;;;;5095191;28;20043;-88
2021/01/08 12:22:46;;;;;;;4.57;4.07;;;;;;;;;;5095845;28;20089;-87
2021/01/08 12:25:13;;;;;;;4.90;4.43;;;;;;;;;;5107818;28;20015;-87
2021/01/08 12:27:39;;;;;;;4.40;4.00;;;;;;;;;;5109772;28;20019;-86
2021/01/08 12:30:06;;;;;;;4.22;3.83;;;;;;;;;;5118282;28;20031;-87
2021/01/08 12:32:32;;;;;;;5.68;4.40;;;;;;;;;;5117435;28;20072;-87
2021/01/08 12:34:58;;;;;;;5.20;4.72;;;;;;;;;;5125150;28;20027;-87
2021/01/08 12:37:24;;;;;;;3.92;3.63;;;;;;;;;;5103319;28;20461;-87
2021/01/08 12:39:51;;;;;;;5.03;3.95;;;;;;;;;;5111518;28;20460;-88
2021/01/08 12:42:20;;;;;;;4.93;4.43;;;;;;;;;;5105937;28;20044;-87
2021/01/08 12:44:46;;;;;;;;;;;;;;;;;;5100448;28;20490;-88
2021/01/08 12:47:15;;;;;;;3.78;3.38;;;;;;;;;;5102101;28;19943;-88
2021/01/08 12:49:41;;;;;;;4.05;3.75;;;;;;;;;;5092195;28;20028;-88
2021/01/08 12:52:09;;;;;;;3.42;3.13;;;;;;;;;;5099494;28;20024;-86
2021/01/08 12:54:35;;;;;;;4.72;3.80;;;;;;;;;;5094094;28;20301;-88
2021/01/08 12:57:01;;;;;;;4.25;3.85;;;;;;;;;;5101319;28;20062;-86
2021/01/08 12:59:30;;;;;;;6.85;3.88;;;;;;;;;;5098920;28;20430;-86
2021/01/08 13:01:57;;;;;;;5.28;4.20;;;;;;;;;;5093084;28;20043;-86
2021/01/08 13:04:23;;;;;;;4.47;4.07;;;;;;;;;;5101481;28;20039;-85
2021/01/08 13:06:49;;;;;;;4.80;4.15;;;;;;;;;;5092041;28;20023;-86
2021/01/08 13:09:15;;;;;;;6.45;4.25;;;;;;;;;;5087748;28;20069;-87
2021/01/08 13:11:41;;;;;;;5.03;4.53;;;;;;;;;;5093171;28;20027;-85
2021/01/08 13:14:08;;;;;;;4.47;4.07;;;;;;;;;;5094620;28;20023;-86
2021/01/08 13:16:34;;;;;;;4.15;3.72;;;;;;;;;;5104945;28;20047;-87
2021/01/08 13:19:00;;;;;;;4.45;3.95;;;;;;;;;;5111866;28;20031;-87
2021/01/08 13:21:29;;;;;;;4.30;3.65;;;;;;;;;;5110105;28;20137;-86
2021/01/08 13:23:55;;;;;;;4.38;3.90;;;;;;;;;;5119595;28;20019;-86
2021/01/08 13:26:24;;;;;;;4.45;3.90;;;;;;;;;;5118968;28;20031;-87
2021/01/08 13:28:51;;;;;;;5.47;4.93;;;;;;;;;;5104734;28;20030;-86
2021/01/08 13:31:35;;;;;;;4.38;3.97;;;;;;;;;;5100993;28;20118;-87
2021/01/08 13:34:01;;;;;;;4.78;4.22;;;;;;;;;;5106008;27;20034;-86
2021/01/08 13:36:28;;;;;;;4.93;4.18;;;;;;;;;;5111917;28;20023;-85
2021/01/08 13:38:54;;;;;;;5.20;4.70;;;;;;;;;;5118974;28;20038;-85
2021/01/08 13:41:24;;;;;;;5.82;4.18;;;;;;;;;;5107373;28;20043;-86
2021/01/08 13:43:51;;;;;;;5.03;4.55;;;;;;;;;;5115558;28;20027;-86
2021/01/08 13:46:17;;;;;;;4.75;4.28;;;;;;;;;;5119533;28;20028;-86
2021/01/08 13:48:44;;;;;;;4.75;4.35;;;;;;;;;;5108553;28;20024;-85
2021/01/08 13:51:20;;;;;;;4.72;4.32;;;;;;;;;;5096247;28;20034;-86
2021/01/08 13:53:48;;;;;;;5.75;4.90;;;;;;;;;;5100539;28;20028;-86
2021/01/08 13:56:15;;;;;;;5.03;4.53;;;;;;;;;;5112179;28;20038;-86
2021/01/08 13:58:41;;;;;;;5.28;4.70;;;;;;;;;;5113766;28;20570;-86
2021/01/08 14:01:07;;;;;;;5.18;4.68;;;;;;;;;;5093387;28;20108;-85
2021/01/08 14:03:34;;;;;;;6.05;5.45;;;;;;;;;;5094201;28;20319;-85
2021/01/08 14:06:00;;;;;;;5.63;5.03;;;;;;;;;;5092686;28;20066;-86
2021/01/08 14:08:26;;;;;;;7.95;5.47;;;;;;;;;;5104449;28;20047;-85
2021/01/08 14:10:52;;;;;;;7.50;5.55;;;;;;;;;;5097280;28;20035;-86
2021/01/08 14:13:18;;;;;;;6.57;5.15;;;;;;;;;;5092736;28;20454;-85
2021/01/08 14:15:44;;;;;;;5.72;5.00;;;;;;;;;;5106605;28;20027;-85
2021/01/08 14:18:11;;;;;;;5.93;4.70;;;;;;;;;;5098302;28;20445;-88
2021/01/08 14:20:37;;;;;;;5.38;4.88;;;;;;;;;;5111622;28;20062;-84
2021/01/08 14:23:03;;;;;;;6.30;5.18;;;;;;;;;;5098312;28;20023;-85
2021/01/08 14:25:29;;;;;;;6.38;4.40;;;;;;;;;;5117380;28;20106;-84
2021/01/08 14:27:55;;;;;;;5.22;4.72;;;;;;;;;;5119325;28;20023;-86
2021/01/08 14:30:22;;;;;;;6.07;5.05;;;;;;;;;;5105079;28;20117;-86
2021/01/08 14:32:49;;;;;;;5.60;4.72;;;;;;;;;;5115828;28;20016;-85
2021/01/08 14:35:22;;;;;;;6.28;4.75;;;;;;;;;;5134420;28;20070;-87
2021/01/08 14:37:48;;;;;;;5.28;4.78;;;;;;;;;;5117947;28;20020;-87
2021/01/08 14:40:15;;;;;;;5.15;4.65;;;;;;;;;;5118506;28;20028;-87
2021/01/08 14:42:41;;;;;;;6.00;4.85;;;;;;;;;;5119893;28;20173;-87
2021/01/08 14:45:07;;;;;;;4.75;4.30;;;;;;;;;;5137603;28;20026;-85
2021/01/08 14:47:33;;;;;;;5.50;4.90;;;;;;;;;;5132157;28;20020;-86
2021/01/08 14:49:59;;;;;;;7.35;4.35;;;;;;;;;;5120104;28;20020;-86
2021/01/08 14:52:29;;;;;;;5.57;5.07;;;;;;;;;;5119689;28;20050;-86
2021/01/08 14:54:55;;;;;;;5.10;4.60;;;;;;;;;;5118894;28;20107;-85
2021/01/08 14:57:21;;;;;;;7.53;4.88;;;;;;;;;;5133777;28;20027;-86
2021/01/08 14:59:47;;;;;;;5.35;4.85;;;;;;;;;;5130887;28;20083;-85
2021/01/08 15:02:13;;;;;;;5.63;4.72;;;;;;;;;;5125195;28;20099;-85
2021/01/08 15:04:39;;;;;;;5.30;4.50;;;;;;;;;;5102077;28;20027;-86